sensor_id;sensor_type;location;lat;lon;timestamp;temperature;humidity
8896;DHT22;4484;48.928;10.066;2023-02-26T00:01:24;-2.10;99.90
8896;DHT22;4484;48.928;10.066;2023-02-26T00:03:53;-2.10;99.90
8896;DHT22;4484;48.928;10.066;2023-02-26T00:06:20;-2.00;99.90
8896;DHT22;4484;48.928;10.066;2023-02-26T00:08:47;-2.10;99.90
8896;DHT22;4484;48.928;10.066;2023-02-26T00:11:15;-2.10;99.90
8896;DHT22;4484;48.928;10.066;2023-02-26T00:13:43;-2.10;99.90
8896;DHT22;4484;48.928;10.066;2023-02-26T00:16:32;-2.10;99.90
8896;DHT22;4484;48.928;10.066;2023-02-26T00:19:02;-2.10;99.90
8896;DHT22;4484;48.928;10.066;2023-02-26T00:21:30;-2.10;99.90
8896;DHT22;4484;48.928;10.066;2023-02-26T00:23:57;-2.20;99.90
8896;DHT22;4484;48.928;10.066;2023-02-26T00:26:25;-2.20;99.90
8896;DHT22;4484;48.928;10.066;2023-02-26T00:28:53;-2.20;99.90
8896;DHT22;4484;48.928;10.066;2023-02-26T00:31:21;-2.30;99.90
8896;DHT22;4484;48.928;10.066;2023-02-26T00:33:53;-2.30;99.90
8896;DHT22;4484;48.928;10.066;2023-02-26T00:36:24;-2.30;99.90
8896;DHT22;4484;48.928;10.066;2023-02-26T00:41:52;-2.40;99.90
8896;DHT22;4484;48.928;10.066;2023-02-26T00:44:20;-2.50;99.90
8896;DHT22;4484;48.928;10.066;2023-02-26T00:47:08;-2.50;99.90
8896;DHT22;4484;48.928;10.066;2023-02-26T00:55:01;-2.80;99.90
8896;DHT22;4484;48.928;10.066;2023-02-26T00:57:27;-2.80;99.90
8896;DHT22;4484;48.928;10.066;2023-02-26T00:59:54;-2.90;99.90
8896;DHT22;4484;48.928;10.066;2023-02-26T01:02:21;-2.90;99.90
8896;DHT22;4484;48.928;10.066;2023-02-26T01:04:49;-3.00;99.90
8896;DHT22;4484;48.928;10.066;2023-02-26T01:07:18;-3.10;99.90
8896;DHT22;4484;48.928;10.066;2023-02-26T01:09:47;-3.10;99.90
8896;DHT22;4484;48.928;10.066;2023-02-26T01:12:14;-3.20;99.90
8896;DHT22;4484;48.928;10.066;2023-02-26T01:14:43;-3.30;99.90
8896;DHT22;4484;48.928;10.066;2023-02-26T01:27:47;-3.40;99.90
8896;DHT22;4484;48.928;10.066;2023-02-26T01:30:15;-3.40;99.90
8896;DHT22;4484;48.928;10.066;2023-02-26T01:32:43;-3.40;99.90
8896;DHT22;4484;48.928;10.066;2023-02-26T01:35:28;-3.50;99.90
8896;DHT22;4484;48.928;10.066;2023-02-26T01:43:52;-3.50;99.90
8896;DHT22;4484;48.928;10.066;2023-02-26T01:49:17;-3.50;99.90
8896;DHT22;4484;48.928;10.066;2023-02-26T01:54:21;-3.60;99.90
8896;DHT22;4484;48.928;10.066;2023-02-26T01:56:55;-3.60;99.90
8896;DHT22;4484;48.928;10.066;2023-02-26T01:59:22;-3.70;99.90
8896;DHT22;4484;48.928;10.066;2023-02-26T02:01:56;-3.70;99.90
8896;DHT22;4484;48.928;10.066;2023-02-26T02:04:24;-3.70;99.90
8896;DHT22;4484;48.928;10.066;2023-02-26T02:06:54;-3.80;99.90
8896;DHT22;4484;48.928;10.066;2023-02-26T02:09:21;-3.90;99.90
8896;DHT22;4484;48.928;10.066;2023-02-26T02:23:14;-4.10;99.90
8896;DHT22;4484;48.928;10.066;2023-02-26T02:31:27;-4.20;99.90
8896;DHT22;4484;48.928;10.066;2023-02-26T02:34:15;-4.20;99.90
8896;DHT22;4484;48.928;10.066;2023-02-26T02:36:59;-4.30;99.90
8896;DHT22;4484;48.928;10.066;2023-02-26T02:42:22;-4.30;99.90
8896;DHT22;4484;48.928;10.066;2023-02-26T02:44:58;-4.40;99.90
8896;DHT22;4484;48.928;10.066;2023-02-26T02:47:28;-4.40;99.90
8896;DHT22;4484;48.928;10.066;2023-02-26T02:50:08;-4.40;99.90
8896;DHT22;4484;48.928;10.066;2023-02-26T02:52:43;-4.40;99.90
8896;DHT22;4484;48.928;10.066;2023-02-26T02:55:16;-4.50;99.90
8896;DHT22;4484;48.928;10.066;2023-02-26T03:00:30;-4.50;99.90
8896;DHT22;4484;48.928;10.066;2023-02-26T03:06:15;-4.60;99.90
8896;DHT22;4484;48.928;10.066;2023-02-26T03:08:45;-4.60;99.90
8896;DHT22;4484;48.928;10.066;2023-02-26T03:11:15;-4.60;99.90
8896;DHT22;4484;48.928;10.066;2023-02-26T03:13:43;-4.70;99.90
8896;DHT22;4484;48.928;10.066;2023-02-26T03:19:28;-4.70;99.90
8896;DHT22;4484;48.928;10.066;2023-02-26T03:22:21;-4.80;99.90
8896;DHT22;4484;48.928;10.066;2023-02-26T03:28:28;-4.90;99.90
8896;DHT22;4484;48.928;10.066;2023-02-26T03:30:43;-4.90;99.90
8896;DHT22;4484;48.928;10.066;2023-02-26T03:36:11;-5.00;99.90
8896;DHT22;4484;48.928;10.066;2023-02-26T03:41:29;-5.10;99.90
8896;DHT22;4484;48.928;10.066;2023-02-26T03:44:02;-5.10;99.90
8896;DHT22;4484;48.928;10.066;2023-02-26T03:46:38;-5.10;99.90
8896;DHT22;4484;48.928;10.066;2023-02-26T03:49:11;-5.20;99.90
8896;DHT22;4484;48.928;10.066;2023-02-26T03:51:41;-5.20;99.90
8896;DHT22;4484;48.928;10.066;2023-02-26T03:54:40;-5.20;99.90
8896;DHT22;4484;48.928;10.066;2023-02-26T03:57:28;-5.30;99.90
8896;DHT22;4484;48.928;10.066;2023-02-26T04:00:14;-5.30;99.90
8896;DHT22;4484;48.928;10.066;2023-02-26T04:05:29;-5.40;99.90
8896;DHT22;4484;48.928;10.066;2023-02-26T04:07:58;-5.40;99.90
8896;DHT22;4484;48.928;10.066;2023-02-26T04:13:23;-5.50;99.90
8896;DHT22;4484;48.928;10.066;2023-02-26T04:15:51;-5.50;99.90
8896;DHT22;4484;48.928;10.066;2023-02-26T04:18:19;-5.50;99.90
8896;DHT22;4484;48.928;10.066;2023-02-26T04:20:46;-5.60;99.90
8896;DHT22;4484;48.928;10.066;2023-02-26T04:23:13;-5.60;99.90
8896;DHT22;4484;48.928;10.066;2023-02-26T04:25:40;-5.60;99.90
8896;DHT22;4484;48.928;10.066;2023-02-26T04:28:08;-5.60;99.90
8896;DHT22;4484;48.928;10.066;2023-02-26T04:30:35;-5.70;99.90
8896;DHT22;4484;48.928;10.066;2023-02-26T04:33:04;-5.70;99.90
8896;DHT22;4484;48.928;10.066;2023-02-26T04:35:31;-5.70;99.90
8896;DHT22;4484;48.928;10.066;2023-02-26T04:37:59;-5.80;99.90
8896;DHT22;4484;48.928;10.066;2023-02-26T04:40:26;-5.80;99.90
8896;DHT22;4484;48.928;10.066;2023-02-26T04:42:53;-5.80;99.90
8896;DHT22;4484;48.928;10.066;2023-02-26T04:45:24;-5.80;99.90
8896;DHT22;4484;48.928;10.066;2023-02-26T04:47:51;-5.90;99.90
8896;DHT22;4484;48.928;10.066;2023-02-26T04:50:18;-5.90;99.90
8896;DHT22;4484;48.928;10.066;2023-02-26T04:52:47;-5.90;99.90
8896;DHT22;4484;48.928;10.066;2023-02-26T04:55:14;-5.90;99.90
8896;DHT22;4484;48.928;10.066;2023-02-26T04:57:41;-5.90;99.90
8896;DHT22;4484;48.928;10.066;2023-02-26T05:00:09;-5.90;99.90
8896;DHT22;4484;48.928;10.066;2023-02-26T05:02:38;-5.80;99.90
8896;DHT22;4484;48.928;10.066;2023-02-26T05:05:05;-5.70;99.90
8896;DHT22;4484;48.928;10.066;2023-02-26T05:07:33;-5.60;99.90
8896;DHT22;4484;48.928;10.066;2023-02-26T05:09:59;-5.50;99.90
8896;DHT22;4484;48.928;10.066;2023-02-26T05:12:26;-5.50;99.90
8896;DHT22;4484;48.928;10.066;2023-02-26T05:14:53;-5.40;99.90
8896;DHT22;4484;48.928;10.066;2023-02-26T05:17:20;-5.30;99.90
8896;DHT22;4484;48.928;10.066;2023-02-26T05:19:47;-5.30;99.90
8896;DHT22;4484;48.928;10.066;2023-02-26T05:22:14;-5.30;99.90
8896;DHT22;4484;48.928;10.066;2023-02-26T05:24:41;-5.30;99.90
8896;DHT22;4484;48.928;10.066;2023-02-26T05:27:09;-5.20;99.90
8896;DHT22;4484;48.928;10.066;2023-02-26T05:29:41;-5.20;99.90
8896;DHT22;4484;48.928;10.066;2023-02-26T05:32:12;-5.10;99.90
8896;DHT22;4484;48.928;10.066;2023-02-26T05:34:39;-5.00;99.90
8896;DHT22;4484;48.928;10.066;2023-02-26T05:37:05;-4.90;99.90
8896;DHT22;4484;48.928;10.066;2023-02-26T05:39:32;-4.90;99.90
8896;DHT22;4484;48.928;10.066;2023-02-26T05:41:59;-4.90;99.90
8896;DHT22;4484;48.928;10.066;2023-02-26T05:44:26;-4.80;99.90
8896;DHT22;4484;48.928;10.066;2023-02-26T05:46:53;-4.80;99.90
8896;DHT22;4484;48.928;10.066;2023-02-26T05:49:20;-4.80;99.90
8896;DHT22;4484;48.928;10.066;2023-02-26T05:51:47;-4.70;99.90
8896;DHT22;4484;48.928;10.066;2023-02-26T05:54:14;-4.70;99.90
8896;DHT22;4484;48.928;10.066;2023-02-26T05:56:41;-4.70;99.90
8896;DHT22;4484;48.928;10.066;2023-02-26T05:59:08;-4.70;99.90
8896;DHT22;4484;48.928;10.066;2023-02-26T06:01:36;-4.60;99.90
8896;DHT22;4484;48.928;10.066;2023-02-26T06:04:04;-4.60;99.90
8896;DHT22;4484;48.928;10.066;2023-02-26T06:06:31;-4.60;99.90
8896;DHT22;4484;48.928;10.066;2023-02-26T06:08:58;-4.60;99.90
8896;DHT22;4484;48.928;10.066;2023-02-26T06:11:30;-4.50;99.90
8896;DHT22;4484;48.928;10.066;2023-02-26T06:14:00;-4.50;99.90
8896;DHT22;4484;48.928;10.066;2023-02-26T06:16:27;-4.40;99.90
8896;DHT22;4484;48.928;10.066;2023-02-26T06:18:54;-4.40;99.90
8896;DHT22;4484;48.928;10.066;2023-02-26T06:21:21;-4.40;99.90
8896;DHT22;4484;48.928;10.066;2023-02-26T06:23:48;-4.40;99.90
8896;DHT22;4484;48.928;10.066;2023-02-26T06:26:15;-4.30;99.90
8896;DHT22;4484;48.928;10.066;2023-02-26T06:28:42;-4.30;99.90
8896;DHT22;4484;48.928;10.066;2023-02-26T06:31:09;-4.30;99.90
8896;DHT22;4484;48.928;10.066;2023-02-26T06:33:36;-4.30;99.90
8896;DHT22;4484;48.928;10.066;2023-02-26T06:36:03;-4.30;99.90
8896;DHT22;4484;48.928;10.066;2023-02-26T06:38:30;-4.20;99.90
8896;DHT22;4484;48.928;10.066;2023-02-26T06:40:57;-4.20;99.90
8896;DHT22;4484;48.928;10.066;2023-02-26T06:43:23;-4.10;99.90
8896;DHT22;4484;48.928;10.066;2023-02-26T06:45:50;-4.10;99.90
8896;DHT22;4484;48.928;10.066;2023-02-26T06:48:17;-4.00;99.90
8896;DHT22;4484;48.928;10.066;2023-02-26T06:50:44;-4.00;99.90
8896;DHT22;4484;48.928;10.066;2023-02-26T06:53:11;-3.90;99.90
8896;DHT22;4484;48.928;10.066;2023-02-26T06:55:43;-3.90;99.90
8896;DHT22;4484;48.928;10.066;2023-02-26T06:58:11;-3.80;99.90
8896;DHT22;4484;48.928;10.066;2023-02-26T07:00:38;-3.80;99.90
8896;DHT22;4484;48.928;10.066;2023-02-26T07:03:12;-3.70;99.90
8896;DHT22;4484;48.928;10.066;2023-02-26T07:05:39;-3.60;99.90
8896;DHT22;4484;48.928;10.066;2023-02-26T07:08:07;-3.50;99.90
8896;DHT22;4484;48.928;10.066;2023-02-26T07:10:35;-3.40;99.90
8896;DHT22;4484;48.928;10.066;2023-02-26T07:13:02;-3.20;99.90
8896;DHT22;4484;48.928;10.066;2023-02-26T07:15:30;-3.00;99.90
8896;DHT22;4484;48.928;10.066;2023-02-26T07:17:57;-2.80;99.90
8896;DHT22;4484;48.928;10.066;2023-02-26T07:20:26;-2.60;99.90
8896;DHT22;4484;48.928;10.066;2023-02-26T07:22:53;-2.20;99.90
8896;DHT22;4484;48.928;10.066;2023-02-26T07:25:20;-1.90;99.90
8896;DHT22;4484;48.928;10.066;2023-02-26T07:27:47;-1.70;99.90
8896;DHT22;4484;48.928;10.066;2023-02-26T07:30:14;-1.30;99.90
8896;DHT22;4484;48.928;10.066;2023-02-26T07:32:42;-1.00;99.90
8896;DHT22;4484;48.928;10.066;2023-02-26T07:35:09;-0.80;99.90
8896;DHT22;4484;48.928;10.066;2023-02-26T07:37:37;-0.80;99.90
8896;DHT22;4484;48.928;10.066;2023-02-26T07:40:05;-0.80;99.90
8896;DHT22;4484;48.928;10.066;2023-02-26T07:42:32;-1.00;99.90
8896;DHT22;4484;48.928;10.066;2023-02-26T07:44:59;-1.10;99.90
8896;DHT22;4484;48.928;10.066;2023-02-26T07:47:25;-1.10;99.90
8896;DHT22;4484;48.928;10.066;2023-02-26T07:49:52;-1.10;99.90
8896;DHT22;4484;48.928;10.066;2023-02-26T07:52:19;-1.10;99.90
8896;DHT22;4484;48.928;10.066;2023-02-26T07:54:46;-1.10;99.90
8896;DHT22;4484;48.928;10.066;2023-02-26T07:57:14;-1.20;99.90
8896;DHT22;4484;48.928;10.066;2023-02-26T07:59:41;-1.20;99.90
8896;DHT22;4484;48.928;10.066;2023-02-26T08:02:08;-1.20;99.90
8896;DHT22;4484;48.928;10.066;2023-02-26T08:04:35;-1.10;99.90
8896;DHT22;4484;48.928;10.066;2023-02-26T08:07:03;-1.00;99.90
8896;DHT22;4484;48.928;10.066;2023-02-26T08:09:30;-0.80;99.90
8896;DHT22;4484;48.928;10.066;2023-02-26T08:11:57;-0.70;99.90
8896;DHT22;4484;48.928;10.066;2023-02-26T08:14:24;-0.70;99.90
8896;DHT22;4484;48.928;10.066;2023-02-26T08:16:51;-0.60;99.90
8896;DHT22;4484;48.928;10.066;2023-02-26T08:19:18;-0.50;99.90
8896;DHT22;4484;48.928;10.066;2023-02-26T08:21:45;-0.50;99.90
8896;DHT22;4484;48.928;10.066;2023-02-26T08:24:13;-0.50;99.90
8896;DHT22;4484;48.928;10.066;2023-02-26T08:26:40;-0.50;99.90
8896;DHT22;4484;48.928;10.066;2023-02-26T08:29:07;-0.60;99.90
8896;DHT22;4484;48.928;10.066;2023-02-26T08:31:34;-0.50;99.90
8896;DHT22;4484;48.928;10.066;2023-02-26T08:34:01;-0.50;99.90
8896;DHT22;4484;48.928;10.066;2023-02-26T08:36:29;-0.60;99.90
8896;DHT22;4484;48.928;10.066;2023-02-26T08:38:56;-0.60;99.90
8896;DHT22;4484;48.928;10.066;2023-02-26T08:41:24;-0.50;99.90
8896;DHT22;4484;48.928;10.066;2023-02-26T08:43:53;-0.40;99.90
8896;DHT22;4484;48.928;10.066;2023-02-26T08:46:20;-0.20;99.90
8896;DHT22;4484;48.928;10.066;2023-02-26T08:48:47;0.20;99.90
8896;DHT22;4484;48.928;10.066;2023-02-26T08:51:14;0.50;99.90
8896;DHT22;4484;48.928;10.066;2023-02-26T08:53:41;0.60;99.90
8896;DHT22;4484;48.928;10.066;2023-02-26T08:56:11;0.50;99.90
8896;DHT22;4484;48.928;10.066;2023-02-26T08:58:38;0.40;99.90
8896;DHT22;4484;48.928;10.066;2023-02-26T09:01:05;0.30;99.90
8896;DHT22;4484;48.928;10.066;2023-02-26T09:03:32;0.30;99.90
8896;DHT22;4484;48.928;10.066;2023-02-26T09:05:59;0.20;99.90
8896;DHT22;4484;48.928;10.066;2023-02-26T09:08:26;0.00;99.90
8896;DHT22;4484;48.928;10.066;2023-02-26T09:10:52;-0.10;99.90
8896;DHT22;4484;48.928;10.066;2023-02-26T09:13:19;-0.20;99.90
8896;DHT22;4484;48.928;10.066;2023-02-26T09:15:48;-0.20;99.90
8896;DHT22;4484;48.928;10.066;2023-02-26T09:18:15;-0.20;99.90
8896;DHT22;4484;48.928;10.066;2023-02-26T09:20:43;-0.20;99.90
8896;DHT22;4484;48.928;10.066;2023-02-26T09:23:10;-0.20;99.90
8896;DHT22;4484;48.928;10.066;2023-02-26T09:25:38;-0.30;99.90
8896;DHT22;4484;48.928;10.066;2023-02-26T09:28:05;-0.40;99.90
8896;DHT22;4484;48.928;10.066;2023-02-26T09:30:32;-0.40;99.90
8896;DHT22;4484;48.928;10.066;2023-02-26T09:32:59;-0.40;99.90
8896;DHT22;4484;48.928;10.066;2023-02-26T09:35:26;-0.50;99.90
8896;DHT22;4484;48.928;10.066;2023-02-26T09:37:53;-0.50;99.90
8896;DHT22;4484;48.928;10.066;2023-02-26T09:40:39;-0.60;99.90
8896;DHT22;4484;48.928;10.066;2023-02-26T09:43:38;-0.70;99.90
8896;DHT22;4484;48.928;10.066;2023-02-26T09:49:06;-0.70;99.90
8896;DHT22;4484;48.928;10.066;2023-02-26T09:51:36;-0.70;99.90
8896;DHT22;4484;48.928;10.066;2023-02-26T09:54:14;-0.70;99.90
8896;DHT22;4484;48.928;10.066;2023-02-26T09:56:42;-0.60;99.90
8896;DHT22;4484;48.928;10.066;2023-02-26T09:59:10;-0.50;99.90
8896;DHT22;4484;48.928;10.066;2023-02-26T10:01:45;-0.50;99.90
8896;DHT22;4484;48.928;10.066;2023-02-26T10:10:08;0.20;99.90
8896;DHT22;4484;48.928;10.066;2023-02-26T10:12:40;0.50;99.90
8896;DHT22;4484;48.928;10.066;2023-02-26T10:15:14;0.70;99.90
8896;DHT22;4484;48.928;10.066;2023-02-26T10:25:47;1.80;99.90
8896;DHT22;4484;48.928;10.066;2023-02-26T10:28:38;2.10;99.90
8896;DHT22;4484;48.928;10.066;2023-02-26T10:31:36;2.30;99.90
8896;DHT22;4484;48.928;10.066;2023-02-26T10:34:19;2.30;99.90
8896;DHT22;4484;48.928;10.066;2023-02-26T10:39:41;2.30;99.90
8896;DHT22;4484;48.928;10.066;2023-02-26T10:42:25;2.40;99.90
8896;DHT22;4484;48.928;10.066;2023-02-26T10:50:56;2.60;99.90
8896;DHT22;4484;48.928;10.066;2023-02-26T10:53:25;2.30;99.90
8896;DHT22;4484;48.928;10.066;2023-02-26T10:58:26;1.70;99.90
8896;DHT22;4484;48.928;10.066;2023-02-26T11:00:54;1.50;99.90
8896;DHT22;4484;48.928;10.066;2023-02-26T11:03:39;1.20;99.90
8896;DHT22;4484;48.928;10.066;2023-02-26T11:06:07;1.20;99.90
8896;DHT22;4484;48.928;10.066;2023-02-26T11:08:45;1.20;99.90
8896;DHT22;4484;48.928;10.066;2023-02-26T11:11:39;1.30;99.90
8896;DHT22;4484;48.928;10.066;2023-02-26T11:14:07;1.50;99.90
8896;DHT22;4484;48.928;10.066;2023-02-26T11:16:35;1.70;99.90
8896;DHT22;4484;48.928;10.066;2023-02-26T11:19:08;1.80;99.90
8896;DHT22;4484;48.928;10.066;2023-02-26T11:21:39;1.90;99.90
8896;DHT22;4484;48.928;10.066;2023-02-26T11:24:12;2.00;99.90
8896;DHT22;4484;48.928;10.066;2023-02-26T11:26:44;2.10;99.90
8896;DHT22;4484;48.928;10.066;2023-02-26T11:29:19;2.20;99.90
8896;DHT22;4484;48.928;10.066;2023-02-26T11:31:54;2.10;99.90
8896;DHT22;4484;48.928;10.066;2023-02-26T11:34:25;1.90;99.90
8896;DHT22;4484;48.928;10.066;2023-02-26T11:36:57;1.60;99.90
8896;DHT22;4484;48.928;10.066;2023-02-26T11:39:27;1.30;99.90
8896;DHT22;4484;48.928;10.066;2023-02-26T11:41:56;1.10;99.90
8896;DHT22;4484;48.928;10.066;2023-02-26T11:44:34;1.10;99.90
8896;DHT22;4484;48.928;10.066;2023-02-26T11:49:44;1.20;99.90
8896;DHT22;4484;48.928;10.066;2023-02-26T11:52:28;1.30;99.90
8896;DHT22;4484;48.928;10.066;2023-02-26T11:55:02;1.40;99.90
8896;DHT22;4484;48.928;10.066;2023-02-26T11:57:31;1.50;99.90
8896;DHT22;4484;48.928;10.066;2023-02-26T12:00:00;1.60;99.90
8896;DHT22;4484;48.928;10.066;2023-02-26T12:02:32;1.90;99.90
8896;DHT22;4484;48.928;10.066;2023-02-26T12:05:04;2.00;99.90
8896;DHT22;4484;48.928;10.066;2023-02-26T12:07:32;2.00;99.90
8896;DHT22;4484;48.928;10.066;2023-02-26T12:09:59;1.80;99.90
8896;DHT22;4484;48.928;10.066;2023-02-26T12:13:02;1.50;99.90
8896;DHT22;4484;48.928;10.066;2023-02-26T12:16:11;1.40;99.90
8896;DHT22;4484;48.928;10.066;2023-02-26T12:18:43;1.30;99.90
8896;DHT22;4484;48.928;10.066;2023-02-26T12:26:39;1.40;99.90
8896;DHT22;4484;48.928;10.066;2023-02-26T12:33:09;1.80;99.90
8896;DHT22;4484;48.928;10.066;2023-02-26T12:36:00;2.00;99.90
8896;DHT22;4484;48.928;10.066;2023-02-26T12:41:30;2.20;99.90
8896;DHT22;4484;48.928;10.066;2023-02-26T12:44:06;2.20;99.90
8896;DHT22;4484;48.928;10.066;2023-02-26T12:52:13;2.30;99.90
8896;DHT22;4484;48.928;10.066;2023-02-26T13:06:39;3.50;99.90
8896;DHT22;4484;48.928;10.066;2023-02-26T13:20:22;2.80;99.90
8896;DHT22;4484;48.928;10.066;2023-02-26T13:23:10;2.40;99.90
8896;DHT22;4484;48.928;10.066;2023-02-26T13:25:49;2.10;99.90
8896;DHT22;4484;48.928;10.066;2023-02-26T13:31:00;2.30;99.90
8896;DHT22;4484;48.928;10.066;2023-02-26T13:33:30;2.30;99.90
8896;DHT22;4484;48.928;10.066;2023-02-26T13:36:00;2.20;99.90
8896;DHT22;4484;48.928;10.066;2023-02-26T13:41:11;2.00;99.90
8896;DHT22;4484;48.928;10.066;2023-02-26T13:52:31;1.70;99.90
8896;DHT22;4484;48.928;10.066;2023-02-26T13:55:00;1.90;99.90
8896;DHT22;4484;48.928;10.066;2023-02-26T13:57:47;1.80;99.90
8896;DHT22;4484;48.928;10.066;2023-02-26T14:00:30;1.80;99.90
8896;DHT22;4484;48.928;10.066;2023-02-26T14:08:24;1.40;99.90
8896;DHT22;4484;48.928;10.066;2023-02-26T14:10:58;1.40;99.90
8896;DHT22;4484;48.928;10.066;2023-02-26T14:13:37;1.20;99.90
8896;DHT22;4484;48.928;10.066;2023-02-26T14:16:22;1.10;99.90
8896;DHT22;4484;48.928;10.066;2023-02-26T14:18:51;1.10;99.90
8896;DHT22;4484;48.928;10.066;2023-02-26T14:21:33;1.20;99.90
8896;DHT22;4484;48.928;10.066;2023-02-26T14:24:01;1.30;99.90
8896;DHT22;4484;48.928;10.066;2023-02-26T14:26:35;1.30;99.90
8896;DHT22;4484;48.928;10.066;2023-02-26T14:32:02;1.30;99.90
8896;DHT22;4484;48.928;10.066;2023-02-26T14:34:35;1.10;99.90
8896;DHT22;4484;48.928;10.066;2023-02-26T14:37:06;0.90;99.90
8896;DHT22;4484;48.928;10.066;2023-02-26T14:39:43;0.80;99.90
8896;DHT22;4484;48.928;10.066;2023-02-26T14:42:21;0.70;99.90
8896;DHT22;4484;48.928;10.066;2023-02-26T14:45:07;0.70;99.90
8896;DHT22;4484;48.928;10.066;2023-02-26T14:47:36;0.70;99.90
8896;DHT22;4484;48.928;10.066;2023-02-26T14:50:05;0.80;99.90
8896;DHT22;4484;48.928;10.066;2023-02-26T15:05:11;2.30;99.90
8896;DHT22;4484;48.928;10.066;2023-02-26T15:18:51;2.10;99.90
8896;DHT22;4484;48.928;10.066;2023-02-26T15:21:22;1.90;99.90
8896;DHT22;4484;48.928;10.066;2023-02-26T15:23:56;1.70;99.90
8896;DHT22;4484;48.928;10.066;2023-02-26T15:26:33;1.70;99.90
8896;DHT22;4484;48.928;10.066;2023-02-26T15:29:03;1.70;99.90
8896;DHT22;4484;48.928;10.066;2023-02-26T15:31:35;1.80;99.90
8896;DHT22;4484;48.928;10.066;2023-02-26T15:34:02;1.80;99.90
8896;DHT22;4484;48.928;10.066;2023-02-26T15:36:30;1.70;99.90
8896;DHT22;4484;48.928;10.066;2023-02-26T15:39:00;1.70;99.90
8896;DHT22;4484;48.928;10.066;2023-02-26T15:41:30;1.40;99.90
8896;DHT22;4484;48.928;10.066;2023-02-26T15:44:05;1.20;99.90
8896;DHT22;4484;48.928;10.066;2023-02-26T15:46:38;1.00;99.90
8896;DHT22;4484;48.928;10.066;2023-02-26T15:49:10;0.80;99.90
8896;DHT22;4484;48.928;10.066;2023-02-26T15:51:39;0.80;99.90
8896;DHT22;4484;48.928;10.066;2023-02-26T15:54:06;0.80;99.90
8896;DHT22;4484;48.928;10.066;2023-02-26T15:56:36;0.80;99.90
8896;DHT22;4484;48.928;10.066;2023-02-26T15:59:10;0.80;99.90
8896;DHT22;4484;48.928;10.066;2023-02-26T16:01:39;0.70;99.90
8896;DHT22;4484;48.928;10.066;2023-02-26T16:04:15;0.70;99.90
8896;DHT22;4484;48.928;10.066;2023-02-26T16:06:46;0.60;99.90
8896;DHT22;4484;48.928;10.066;2023-02-26T16:11:46;0.50;99.90
8896;DHT22;4484;48.928;10.066;2023-02-26T16:14:22;0.40;99.90
8896;DHT22;4484;48.928;10.066;2023-02-26T16:16:53;0.30;99.90
8896;DHT22;4484;48.928;10.066;2023-02-26T16:19:41;0.20;99.90
8896;DHT22;4484;48.928;10.066;2023-02-26T16:22:33;0.10;99.90
8896;DHT22;4484;48.928;10.066;2023-02-26T16:25:13;0.00;99.90
8896;DHT22;4484;48.928;10.066;2023-02-26T16:27:41;-0.10;99.90
8896;DHT22;4484;48.928;10.066;2023-02-26T16:30:17;-0.20;99.90
8896;DHT22;4484;48.928;10.066;2023-02-26T16:32:44;-0.20;99.90
8896;DHT22;4484;48.928;10.066;2023-02-26T16:35:19;-0.30;99.90
8896;DHT22;4484;48.928;10.066;2023-02-26T16:37:51;-0.30;99.90
8896;DHT22;4484;48.928;10.066;2023-02-26T16:48:23;-0.40;99.90
8896;DHT22;4484;48.928;10.066;2023-02-26T16:51:04;-0.50;99.90
8896;DHT22;4484;48.928;10.066;2023-02-26T16:53:39;-0.50;99.90
8896;DHT22;4484;48.928;10.066;2023-02-26T16:56:11;-0.60;99.90
8896;DHT22;4484;48.928;10.066;2023-02-26T16:59:00;-0.60;99.90
8896;DHT22;4484;48.928;10.066;2023-02-26T17:01:34;-0.60;99.90
8896;DHT22;4484;48.928;10.066;2023-02-26T17:04:02;-0.70;99.90
8896;DHT22;4484;48.928;10.066;2023-02-26T17:06:29;-0.80;99.90
8896;DHT22;4484;48.928;10.066;2023-02-26T17:08:58;-0.80;99.90
8896;DHT22;4484;48.928;10.066;2023-02-26T17:14:09;-0.90;99.90
8896;DHT22;4484;48.928;10.066;2023-02-26T17:16:38;-0.90;99.90
8896;DHT22;4484;48.928;10.066;2023-02-26T17:19:05;-0.90;99.90
8896;DHT22;4484;48.928;10.066;2023-02-26T17:21:42;-1.00;99.90
8896;DHT22;4484;48.928;10.066;2023-02-26T17:24:20;-1.00;99.90
8896;DHT22;4484;48.928;10.066;2023-02-26T17:26:50;-1.00;99.90
8896;DHT22;4484;48.928;10.066;2023-02-26T17:29:20;-1.00;99.90
8896;DHT22;4484;48.928;10.066;2023-02-26T17:31:49;-1.10;99.90
8896;DHT22;4484;48.928;10.066;2023-02-26T17:34:18;-1.10;99.90
8896;DHT22;4484;48.928;10.066;2023-02-26T17:36:47;-1.10;99.90
8896;DHT22;4484;48.928;10.066;2023-02-26T17:39:14;-1.20;99.90
8896;DHT22;4484;48.928;10.066;2023-02-26T17:41:44;-1.20;99.90
8896;DHT22;4484;48.928;10.066;2023-02-26T17:44:11;-1.30;99.90
8896;DHT22;4484;48.928;10.066;2023-02-26T17:46:38;-1.30;99.90
8896;DHT22;4484;48.928;10.066;2023-02-26T17:49:05;-1.40;99.90
8896;DHT22;4484;48.928;10.066;2023-02-26T17:51:32;-1.30;99.90
8896;DHT22;4484;48.928;10.066;2023-02-26T17:53:58;-1.40;99.90
8896;DHT22;4484;48.928;10.066;2023-02-26T17:56:30;-1.40;99.90
8896;DHT22;4484;48.928;10.066;2023-02-26T17:58:58;-1.40;99.90
8896;DHT22;4484;48.928;10.066;2023-02-26T18:01:26;-1.50;99.90
8896;DHT22;4484;48.928;10.066;2023-02-26T18:03:56;-1.50;99.90
8896;DHT22;4484;48.928;10.066;2023-02-26T18:06:27;-1.60;99.90
8896;DHT22;4484;48.928;10.066;2023-02-26T18:08:56;-1.60;99.90
8896;DHT22;4484;48.928;10.066;2023-02-26T18:11:23;-1.70;99.90
8896;DHT22;4484;48.928;10.066;2023-02-26T18:13:52;-1.70;99.90
8896;DHT22;4484;48.928;10.066;2023-02-26T18:16:25;-1.70;99.90
8896;DHT22;4484;48.928;10.066;2023-02-26T18:18:52;-1.70;99.90
8896;DHT22;4484;48.928;10.066;2023-02-26T18:21:19;-1.70;99.90
8896;DHT22;4484;48.928;10.066;2023-02-26T18:23:46;-1.70;99.90
8896;DHT22;4484;48.928;10.066;2023-02-26T18:26:14;-1.70;99.90
8896;DHT22;4484;48.928;10.066;2023-02-26T18:28:42;-1.70;99.90
8896;DHT22;4484;48.928;10.066;2023-02-26T18:31:09;-1.80;99.90
8896;DHT22;4484;48.928;10.066;2023-02-26T18:33:37;-1.80;99.90
8896;DHT22;4484;48.928;10.066;2023-02-26T18:36:08;-1.80;99.90
8896;DHT22;4484;48.928;10.066;2023-02-26T18:38:36;-1.80;99.90
8896;DHT22;4484;48.928;10.066;2023-02-26T18:41:03;-1.80;99.90
8896;DHT22;4484;48.928;10.066;2023-02-26T18:43:30;-1.80;99.90
8896;DHT22;4484;48.928;10.066;2023-02-26T18:45:57;-1.80;99.90
8896;DHT22;4484;48.928;10.066;2023-02-26T18:48:27;-1.90;99.90
8896;DHT22;4484;48.928;10.066;2023-02-26T18:50:54;-1.90;99.90
8896;DHT22;4484;48.928;10.066;2023-02-26T18:53:22;-1.90;99.90
8896;DHT22;4484;48.928;10.066;2023-02-26T18:55:50;-1.90;99.90
8896;DHT22;4484;48.928;10.066;2023-02-26T18:58:19;-1.90;99.90
8896;DHT22;4484;48.928;10.066;2023-02-26T19:00:46;-1.90;99.90
8896;DHT22;4484;48.928;10.066;2023-02-26T19:03:13;-1.90;99.90
8896;DHT22;4484;48.928;10.066;2023-02-26T19:05:40;-2.00;99.90
8896;DHT22;4484;48.928;10.066;2023-02-26T19:08:08;-2.00;99.90
8896;DHT22;4484;48.928;10.066;2023-02-26T19:10:35;-2.10;99.90
8896;DHT22;4484;48.928;10.066;2023-02-26T19:13:02;-2.10;99.90
8896;DHT22;4484;48.928;10.066;2023-02-26T19:15:30;-2.10;99.90
8896;DHT22;4484;48.928;10.066;2023-02-26T19:17:57;-2.10;99.90
8896;DHT22;4484;48.928;10.066;2023-02-26T19:20:24;-2.20;99.90
8896;DHT22;4484;48.928;10.066;2023-02-26T19:22:51;-2.30;99.90
8896;DHT22;4484;48.928;10.066;2023-02-26T19:25:18;-2.30;99.90
8896;DHT22;4484;48.928;10.066;2023-02-26T19:27:52;-2.40;99.90
8896;DHT22;4484;48.928;10.066;2023-02-26T19:30:22;-2.50;99.90
8896;DHT22;4484;48.928;10.066;2023-02-26T19:32:50;-2.50;99.90
8896;DHT22;4484;48.928;10.066;2023-02-26T19:35:18;-2.50;99.90
8896;DHT22;4484;48.928;10.066;2023-02-26T19:37:45;-2.60;99.90